Time;durP1;ratioP1;P1;durP2;ratioP2;P2;SDS_P1;SDS_P2;PMS_P1;PMS_P2;Temp;Humidity;BMP_temperature;BMP_pressure;BME280_temperature;BME280_humidity;BME280_pressure;Samples;Min_cycle;Max_cycle;Signal;HPM_P1;HPM_P2
2021/04/16 00:02:09;;;;;;;15.80;9.32;;;-0.90;99.90;;;;;;5069315;28;20035;-74
2021/04/16 00:04:34;;;;;;;16.48;9.55;;;-1.00;99.90;;;;;;5069502;28;20107;-74
2021/04/16 00:07:00;;;;;;;17.27;9.07;;;-1.00;99.90;;;;;;5069176;28;20035;-75
2021/04/16 00:09:27;;;;;;;14.48;9.40;;;-1.00;99.90;;;;;;5069394;28;20107;-74
2021/04/16 00:11:53;;;;;;;17.80;9.13;;;-1.10;99.90;;;;;;5067924;28;20024;-73
2021/04/16 00:14:20;;;;;;;15.50;9.30;;;-1.10;99.90;;;;;;5069173;28;20024;-74
2021/04/16 00:16:45;;;;;;;16.30;9.43;;;-1.10;99.90;;;;;;5068969;28;20039;-74
2021/04/16 00:19:12;;;;;;;14.50;8.35;;;-1.10;99.90;;;;;;5069324;28;20032;-74
2021/04/16 00:21:38;;;;;;;16.27;8.82;;;-1.20;99.90;;;;;;5069149;28;20366;-74
2021/04/16 00:24:05;;;;;;;17.90;9.68;;;-1.20;99.90;;;;;;5069063;28;20027;-74
2021/04/16 00:26:30;;;;;;;17.20;8.82;;;-1.20;99.90;;;;;;5068953;28;20028;-73
2021/04/16 00:28:56;;;;;;;19.35;10.43;;;-1.30;99.90;;;;;;5063922;22;20049;-73
2021/04/16 00:31:30;;;;;;;15.30;9.25;;;-1.30;99.90;;;;;;5029387;28;20057;-74
2021/04/16 00:33:56;;;;;;;15.68;9.32;;;-1.30;99.90;;;;;;5029111;28;20079;-73
2021/04/16 00:36:24;;;;;;;15.15;9.68;;;-1.30;99.90;;;;;;5028949;28;20033;-73
2021/04/16 00:38:50;;;;;;;15.23;9.18;;;-1.30;99.90;;;;;;5027711;28;20022;-73
2021/04/16 00:41:19;;;;;;;15.90;9.25;;;-1.30;99.90;;;;;;5028979;28;20470;-74
2021/04/16 00:43:45;;;;;;;16.35;8.68;;;-1.40;99.90;;;;;;5029074;28;20044;-73
2021/04/16 00:46:11;;;;;;;16.45;9.98;;;-1.40;99.90;;;;;;5027637;28;20036;-73
2021/04/16 00:48:52;;;;;;;20.67;10.13;;;-1.40;99.90;;;;;;5028818;28;20120;-73
2021/04/16 00:51:29;;;;;;;15.45;9.90;;;-1.50;99.90;;;;;;5027864;28;20490;-73
2021/04/16 00:53:57;;;;;;;14.88;8.88;;;-1.50;99.90;;;;;;5031475;28;20087;-73
2021/04/16 00:56:24;;;;;;;15.70;8.48;;;-1.50;99.90;;;;;;5032575;28;20022;-73
2021/04/16 00:58:49;;;;;;;15.13;8.57;;;-1.60;99.90;;;;;;5032512;28;20029;-73
2021/04/16 01:21:39;;;;;;;16.48;9.52;;;-1.80;99.90;;;;;;5032436;28;20493;-73
2021/04/16 01:24:20;;;;;;;20.58;10.38;;;-1.90;99.90;;;;;;5031009;28;20459;-73
2021/04/16 01:26:46;;;;;;;16.40;10.02;;;-1.90;99.90;;;;;;5030743;28;20508;-73
2021/04/16 01:29:11;;;;;;;14.38;9.07;;;-1.90;99.90;;;;;;5032019;28;20038;-73
2021/04/16 01:31:47;;;;;;;17.75;10.85;;;-1.90;99.90;;;;;;5032206;28;20021;-73
2021/04/16 01:34:23;;;;;;;18.50;11.25;;;-1.90;99.90;;;;;;5032289;28;20041;-73
2021/04/16 01:36:55;;;;;;;24.10;11.10;;;-1.90;99.90;;;;;;5031998;28;20490;-74
2021/04/16 01:39:23;;;;;;;13.25;7.43;;;-1.90;99.90;;;;;;5031767;28;20116;-73
2021/04/16 01:41:49;;;;;;;20.02;11.07;;;-1.90;99.90;;;;;;5030577;28;20398;-73
2021/04/16 01:44:20;;;;;;;16.55;10.43;;;-1.90;99.90;;;;;;5031672;28;20044;-73
2021/04/16 01:47:04;;;;;;;16.77;10.40;;;-1.90;99.90;;;;;;5031644;28;20466;-73
2021/04/16 01:49:31;;;;;;;16.27;10.02;;;-1.90;99.90;;;;;;5031706;28;20521;-73
2021/04/16 01:51:58;;;;;;;18.42;9.80;;;-2.00;99.90;;;;;;5030371;28;20026;-73
2021/04/16 01:54:30;;;;;;;18.02;11.52;;;-2.00;99.90;;;;;;5030401;28;20025;-74
2021/04/16 01:57:09;;;;;;;17.38;10.73;;;-2.00;99.90;;;;;;5030339;28;20055;-72
2021/04/16 01:59:37;;;;;;;18.38;10.05;;;-2.00;99.90;;;;;;5031656;28;20079;-73
2021/04/16 02:02:05;;;;;;;18.33;10.82;;;-2.00;99.90;;;;;;5030167;28;20558;-73
2021/04/16 02:04:31;;;;;;;16.67;9.90;;;-2.00;99.90;;;;;;5031033;28;20478;-73
2021/04/16 02:06:56;;;;;;;17.15;10.40;;;-2.00;99.90;;;;;;5029971;28;20029;-73
2021/04/16 02:09:28;;;;;;;16.40;10.35;;;-2.00;99.90;;;;;;5031260;28;20152;-73
2021/04/16 02:11:53;;;;;;;16.85;10.27;;;-2.10;99.90;;;;;;5031486;28;20021;-73
2021/04/16 02:14:24;;;;;;;20.25;10.68;;;-2.10;99.90;;;;;;5031267;28;20036;-73
2021/04/16 02:16:52;;;;;;;20.05;10.90;;;-2.10;99.90;;;;;;5031317;28;20029;-73
2021/04/16 02:19:18;;;;;;;18.13;10.23;;;-2.10;99.90;;;;;;5031068;28;20029;-73
2021/04/16 02:21:44;;;;;;;16.83;9.55;;;-2.10;99.90;;;;;;5031180;28;20052;-73
2021/04/16 02:24:10;;;;;;;17.48;10.45;;;-2.20;99.90;;;;;;5031063;28;20075;-73
2021/04/16 02:26:37;;;;;;;16.70;10.60;;;-2.20;99.90;;;;;;5029625;28;20474;-73
2021/04/16 02:29:12;;;;;;;19.27;11.52;;;-2.20;99.90;;;;;;5029566;28;20034;-73
2021/04/16 02:31:42;;;;;;;18.13;10.38;;;-2.20;99.90;;;;;;5031408;28;20478;-73
2021/04/16 02:34:09;;;;;;;18.75;10.85;;;-2.20;99.90;;;;;;5029872;28;20025;-73
2021/04/16 02:36:35;;;;;;;18.70;10.68;;;-2.30;99.90;;;;;;5031003;28;20099;-73
2021/04/16 02:39:00;;;;;;;17.45;11.18;;;-2.30;99.90;;;;;;5029670;28;20029;-73
2021/04/16 02:41:26;;;;;;;18.13;10.77;;;-2.40;99.90;;;;;;5030760;28;20037;-73
2021/04/16 02:43:51;;;;;;;20.75;12.00;;;-2.40;99.90;;;;;;5029439;28;20055;-74
2021/04/16 02:46:17;;;;;;;19.48;11.13;;;-2.30;99.90;;;;;;5030464;28;20025;-73
2021/04/16 02:48:43;;;;;;;19.27;11.40;;;-2.30;99.90;;;;;;5029230;28;20509;-72
2021/04/16 02:51:08;;;;;;;17.20;10.82;;;-2.20;99.90;;;;;;5029234;28;20026;-73
2021/04/16 02:53:34;;;;;;;17.90;11.65;;;-2.20;99.90;;;;;;5030753;28;20101;-73
2021/04/16 02:56:00;;;;;;;19.63;11.95;;;-2.20;99.90;;;;;;5030375;28;20059;-73
2021/04/16 02:58:25;;;;;;;19.70;11.40;;;-2.10;99.90;;;;;;5029288;28;20074;-73
2021/04/16 03:00:51;;;;;;;20.73;12.02;;;-2.10;99.90;;;;;;5030384;28;20028;-73
2021/04/16 03:03:17;;;;;;;17.75;11.43;;;-2.10;99.90;;;;;;5028953;28;20395;-73
2021/04/16 03:05:42;;;;;;;20.73;12.15;;;-2.10;99.90;;;;;;5028861;28;20022;-73
2021/04/16 03:08:08;;;;;;;20.40;11.25;;;-2.10;99.90;;;;;;5030110;28;20053;-73
2021/04/16 03:10:35;;;;;;;21.10;12.35;;;-2.10;99.90;;;;;;5030141;28;20025;-73
2021/04/16 03:13:01;;;;;;;20.13;12.40;;;-2.10;99.90;;;;;;5030112;28;20017;-73
2021/04/16 03:15:27;;;;;;;19.73;12.07;;;-2.00;99.90;;;;;;5029403;28;20579;-73
2021/04/16 03:17:52;;;;;;;21.08;12.52;;;-2.00;99.90;;;;;;5029957;28;20540;-73
2021/04/16 03:20:21;;;;;;;17.55;10.82;;;-2.00;99.90;;;;;;5028626;28;20032;-74
2021/04/16 03:22:47;;;;;;;17.50;11.48;;;-1.90;99.90;;;;;;5028607;28;20053;-73
2021/04/16 03:25:14;;;;;;;19.27;11.68;;;-1.90;99.90;;;;;;5029903;28;20028;-73
2021/04/16 03:27:40;;;;;;;18.50;11.35;;;-1.90;99.90;;;;;;5029702;28;20038;-73
2021/04/16 03:30:08;;;;;;;17.98;10.77;;;-2.00;99.90;;;;;;5029729;28;20375;-73
2021/04/16 03:32:34;;;;;;;19.27;11.23;;;-2.00;99.90;;;;;;5029944;28;20017;-74
2021/04/16 03:34:59;;;;;;;17.08;10.75;;;-2.00;99.90;;;;;;5029583;28;20028;-74
2021/04/16 03:37:25;;;;;;;16.67;11.40;;;-2.10;99.90;;;;;;5028224;28;20566;-73
2021/04/16 03:39:51;;;;;;;16.70;11.00;;;-2.20;99.90;;;;;;5028663;28;20113;-73
2021/04/16 03:42:17;;;;;;;21.50;10.98;;;-2.20;99.90;;;;;;5029530;28;20025;-73
2021/04/16 03:44:42;;;;;;;20.70;11.80;;;-2.30;99.90;;;;;;5029516;28;20041;-73
2021/04/16 03:47:08;;;;;;;18.63;11.02;;;-2.30;99.90;;;;;;5029596;28;20025;-73
2021/04/16 03:49:33;;;;;;;18.55;11.85;;;-2.30;99.90;;;;;;5029385;28;20101;-74
2021/04/16 03:52:02;;;;;;;19.52;11.50;;;-2.30;99.90;;;;;;5028108;28;20029;-73
2021/04/16 03:54:28;;;;;;;25.48;13.98;;;-2.30;99.90;;;;;;5028123;28;20029;-73
2021/04/16 03:56:54;;;;;;;23.65;13.43;;;-2.30;99.90;;;;;;5028083;28;20057;-73
2021/04/16 03:59:22;;;;;;;19.55;11.68;;;-2.20;99.90;;;;;;5029259;28;20063;-73
2021/04/16 04:01:48;;;;;;;19.65;12.20;;;-2.20;99.90;;;;;;5029583;28;20036;-73
2021/04/16 04:04:14;;;;;;;20.35;11.88;;;-2.30;99.90;;;;;;5028203;28;20026;-73
2021/04/16 04:06:40;;;;;;;21.08;12.45;;;-2.40;99.90;;;;;;5029304;28;20516;-73
2021/04/16 04:09:06;;;;;;;21.20;11.20;;;-2.40;99.90;;;;;;5027938;28;20025;-73
2021/04/16 04:11:32;;;;;;;22.55;11.88;;;-2.50;99.90;;;;;;5029669;28;20488;-73
2021/04/16 04:13:59;;;;;;;23.90;12.45;;;-2.50;99.90;;;;;;5029332;28;20029;-73
2021/04/16 04:16:25;;;;;;;21.33;11.68;;;-2.50;99.90;;;;;;5027894;28;20061;-73
2021/04/16 04:18:51;;;;;;;20.40;11.65;;;-2.50;99.90;;;;;;5029226;28;20449;-73
2021/04/16 04:21:16;;;;;;;21.85;11.32;;;-2.50;99.90;;;;;;5029308;28;20029;-73
2021/04/16 04:23:42;;;;;;;21.25;12.20;;;-2.40;99.90;;;;;;5028008;28;20123;-73
2021/04/16 04:26:07;;;;;;;21.77;13.25;;;-2.40;99.90;;;;;;5030654;28;20060;-73
2021/04/16 04:28:33;;;;;;;24.30;13.27;;;-2.40;99.90;;;;;;5031800;28;20490;-73
2021/04/16 04:30:59;;;;;;;22.27;13.52;;;-2.40;99.90;;;;;;5033450;28;20025;-73
2021/04/16 04:33:25;;;;;;;24.90;13.25;;;-2.40;99.90;;;;;;5033163;28;20195;-73
2021/04/16 04:35:51;;;;;;;27.08;14.27;;;-2.30;99.90;;;;;;5033296;28;20017;-73
2021/04/16 04:38:16;;;;;;;22.45;13.82;;;-2.20;99.90;;;;;;5031730;28;20103;-73
2021/04/16 04:40:42;;;;;;;24.83;13.27;;;-2.20;99.90;;;;;;5033257;28;20082;-74
2021/04/16 04:43:08;;;;;;;23.95;13.25;;;-2.20;99.90;;;;;;5033261;28;20155;-73
2021/04/16 04:45:34;;;;;;;21.25;12.70;;;-2.10;99.90;;;;;;5032938;28;20471;-73
2021/04/16 04:48:00;;;;;;;23.65;13.32;;;-2.10;99.90;;;;;;5031502;28;20128;-73
2021/04/16 04:50:26;;;;;;;19.90;12.45;;;-2.10;99.90;;;;;;5033003;28;20121;-73
2021/04/16 04:52:53;;;;;;;23.60;12.55;;;-2.00;99.90;;;;;;5032828;28;20386;-73
2021/04/16 04:55:25;;;;;;;21.65;13.07;;;-2.00;99.90;;;;;;5033139;28;20101;-73
2021/04/16 04:57:51;;;;;;;23.25;13.57;;;-2.00;99.90;;;;;;5032798;28;20032;-73
2021/04/16 05:00:18;;;;;;;22.58;13.07;;;-1.90;99.90;;;;;;5031719;28;20124;-73
2021/04/16 05:02:44;;;;;;;21.42;12.40;;;-1.80;99.90;;;;;;5032635;28;20022;-73
2021/04/16 05:05:11;;;;;;;24.27;13.95;;;-1.70;99.90;;;;;;5033773;28;20027;-73
2021/04/16 05:07:37;;;;;;;24.27;14.32;;;-1.60;99.90;;;;;;5033193;28;20049;-73
2021/04/16 05:10:04;;;;;;;24.75;14.38;;;-1.50;99.90;;;;;;5031354;28;20057;-73
2021/04/16 05:12:30;;;;;;;24.42;13.85;;;-1.50;99.90;;;;;;5031162;28;20071;-73
2021/04/16 05:14:55;;;;;;;20.10;12.32;;;-1.40;99.90;;;;;;5032548;28;20056;-73
2021/04/16 05:17:21;;;;;;;24.15;13.52;;;-1.30;99.90;;;;;;5032378;28;20034;-73
2021/04/16 05:19:46;;;;;;;25.55;13.57;;;-1.20;99.90;;;;;;5032309;28;20556;-73
2021/04/16 05:22:12;;;;;;;22.50;13.68;;;-1.20;99.90;;;;;;5031197;28;20029;-73
2021/04/16 05:24:38;;;;;;;27.08;13.98;;;-1.10;99.90;;;;;;5032340;28;20032;-73
2021/04/16 05:27:09;;;;;;;27.63;12.55;;;-1.00;99.90;;;;;;5030653;28;20091;-73
2021/04/16 05:29:35;;;;;;;21.73;12.32;;;-0.80;99.90;;;;;;5031320;28;20437;-73
2021/04/16 05:32:01;;;;;;;23.20;13.30;;;-0.70;99.90;;;;;;5032030;28;20109;-73
2021/04/16 05:34:27;;;;;;;22.27;12.70;;;-0.50;99.90;;;;;;5032037;28;20063;-73
2021/04/16 05:36:53;;;;;;;22.33;12.77;;;-0.40;99.90;;;;;;5032035;28;20418;-73
2021/04/16 05:39:19;;;;;;;20.80;12.30;;;-0.30;99.90;;;;;;5031299;28;20549;-73
2021/04/16 05:41:45;;;;;;;20.00;12.23;;;-0.10;99.90;;;;;;5030650;28;20033;-74
2021/04/16 05:44:11;;;;;;;22.27;13.48;;;0.00;99.90;;;;;;5030682;28;20040;-73
2021/04/16 05:46:37;;;;;;;19.92;12.55;;;0.10;99.90;;;;;;5031782;28;20025;-73
2021/04/16 05:49:03;;;;;;;23.02;13.00;;;0.20;99.90;;;;;;5030493;28;20029;-73
2021/04/16 05:51:29;;;;;;;23.42;12.90;;;0.30;99.90;;;;;;5031776;28;20105;-73
2021/04/16 05:53:54;;;;;;;23.25;12.05;;;0.40;99.90;;;;;;5031831;28;20055;-73
2021/04/16 05:56:20;;;;;;;17.83;12.20;;;0.50;99.90;;;;;;5030474;28;20017;-74
2021/04/16 05:58:46;;;;;;;19.38;12.43;;;0.60;99.90;;;;;;5030313;28;20040;-73
2021/04/16 06:01:11;;;;;;;20.30;12.60;;;0.80;99.90;;;;;;5030174;28;20509;-73
2021/04/16 06:03:39;;;;;;;21.60;10.77;;;0.90;99.90;;;;;;5031488;28;20027;-73
2021/04/16 06:06:05;;;;;;;22.90;11.73;;;1.10;99.90;;;;;;5030177;28;20442;-73
2021/04/16 06:08:31;;;;;;;21.02;12.02;;;1.10;99.90;;;;;;5031498;28;20034;-73
2021/04/16 06:10:56;;;;;;;20.15;11.18;;;1.20;99.90;;;;;;5031400;28;20125;-73
2021/04/16 06:13:24;;;;;;;19.75;11.75;;;1.30;99.90;;;;;;5030405;28;20017;-73
2021/04/16 06:15:51;;;;;;;21.60;11.65;;;1.50;99.90;;;;;;5031397;28;20025;-73
2021/04/16 06:18:16;;;;;;;18.40;11.38;;;1.70;99.90;;;;;;5031467;28;20434;-73
2021/04/16 06:20:42;;;;;;;19.60;12.70;;;1.80;99.90;;;;;;5031629;28;20070;-73
2021/04/16 06:23:07;;;;;;;18.67;11.52;;;1.90;99.90;;;;;;5031369;28;20030;-73
2021/04/16 06:25:34;;;;;;;20.15;11.25;;;2.00;99.90;;;;;;5031291;28;20026;-74
2021/04/16 06:28:01;;;;;;;17.48;11.48;;;2.00;99.90;;;;;;5046509;22;20255;-75
2021/04/16 06:30:27;;;;;;;17.13;11.10;;;2.20;99.90;;;;;;5030000;28;20033;-74
2021/04/16 06:33:16;;;;;;;18.77;11.73;;;2.30;99.90;;;;;;5031354;28;20389;-74
2021/04/16 06:35:50;;;;;;;18.92;11.25;;;2.40;99.90;;;;;;5029866;28;20038;-74
2021/04/16 06:38:18;;;;;;;16.30;10.27;;;2.50;99.90;;;;;;5029576;28;20032;-75
2021/04/16 06:40:48;;;;;;;17.80;10.73;;;2.70;99.90;;;;;;5030859;28;20025;-74
2021/04/16 06:43:14;;;;;;;19.33;11.05;;;2.80;99.90;;;;;;5030865;28;20402;-74
2021/04/16 06:45:40;;;;;;;15.50;10.65;;;2.90;99.90;;;;;;5029632;28;20025;-75
2021/04/16 06:48:09;;;;;;;15.90;10.82;;;3.00;99.90;;;;;;5029409;28;20028;-74
2021/04/16 06:50:40;;;;;;;16.42;10.75;;;3.10;99.90;;;;;;5028529;28;20461;-74
2021/04/16 06:53:23;;;;;;;16.02;9.98;;;3.20;99.90;;;;;;5029406;28;20552;-74
2021/04/16 06:55:52;;;;;;;14.82;10.23;;;3.30;99.90;;;;;;5030786;28;20060;-74
2021/04/16 06:58:24;;;;;;;15.40;10.60;;;3.50;99.90;;;;;;5030582;28;20021;-75
2021/04/16 07:01:06;;;;;;;13.80;9.50;;;3.60;99.90;;;;;;5030760;28;20048;-75
2021/04/16 07:04:16;;;;;;;14.50;9.80;;;3.70;99.90;;;;;;5030172;28;20065;-74
2021/04/16 07:06:42;;;;;;;14.40;10.18;;;3.80;99.90;;;;;;5029157;28;20060;-73
2021/04/16 07:09:16;;;;;;;13.20;9.98;;;3.90;99.90;;;;;;5029067;28;20025;-74
2021/04/16 07:11:46;;;;;;;13.82;9.95;;;4.00;99.90;;;;;;5030726;28;20125;-75
2021/04/16 07:14:34;;;;;;;13.90;9.88;;;4.10;99.90;;;;;;5030260;28;20029;-75
2021/04/16 07:17:00;;;;;;;15.35;10.30;;;4.30;99.90;;;;;;5030468;28;20109;-74
2021/04/16 07:19:28;;;;;;;14.82;10.38;;;4.50;99.90;;;;;;5030223;28;20063;-74
2021/04/16 07:22:16;;;;;;;15.05;9.52;;;4.70;99.90;;;;;;5029173;28;20128;-74
2021/04/16 07:24:43;;;;;;;16.25;11.05;;;4.80;99.90;;;;;;5030678;28;20036;-74
2021/04/16 07:27:13;;;;;;;20.73;11.43;;;4.90;99.90;;;;;;5029237;28;20036;-74
2021/04/16 07:29:43;;;;;;;15.48;10.45;;;4.90;99.90;;;;;;5030937;28;20060;-74
2021/04/16 07:32:29;;;;;;;17.02;12.10;;;5.10;99.90;;;;;;5029486;28;20073;-74
2021/04/16 07:34:58;;;;;;;14.40;11.00;;;5.20;99.90;;;;;;5030874;28;20017;-74
2021/04/16 07:37:39;;;;;;;14.68;10.25;;;5.30;99.90;;;;;;5029170;28;20021;-74
2021/04/16 07:40:10;;;;;;;15.57;11.15;;;5.40;99.90;;;;;;5030516;28;20033;-74
2021/04/16 07:42:42;;;;;;;14.75;11.15;;;5.60;99.90;;;;;;5030313;28;20025;-74
2021/04/16 07:45:15;;;;;;;14.60;10.53;;;5.70;99.90;;;;;;5029082;28;20037;-74
2021/04/16 07:47:41;;;;;;;14.70;11.35;;;5.90;99.90;;;;;;5028766;28;20107;-74
2021/04/16 07:50:14;;;;;;;15.80;10.32;;;6.10;99.90;;;;;;5028489;28;20471;-74
2021/04/16 07:52:46;;;;;;;13.60;10.73;;;6.30;99.90;;;;;;5028562;28;20022;-73
2021/04/16 07:55:28;;;;;;;15.40;10.63;;;6.40;99.90;;;;;;5029782;28;20029;-73
2021/04/16 07:58:19;;;;;;;10.60;8.05;;;6.50;99.90;;;;;;5029923;28;20079;-73
2021/04/16 08:00:46;;;;;;;12.35;9.93;;;6.70;99.90;;;;;;5029472;28;20030;-74
2021/04/16 08:03:16;;;;;;;14.35;9.70;;;7.10;99.90;;;;;;5028251;28;20029;-74
2021/04/16 08:05:58;;;;;;;15.75;11.23;;;7.50;99.90;;;;;;5029701;28;20029;-73
2021/04/16 08:08:32;;;;;;;13.68;10.27;;;8.10;99.90;;;;;;5029399;28;20457;-74
2021/04/16 08:11:01;;;;;;;16.20;10.63;;;8.70;99.90;;;;;;5029532;28;20032;-75
2021/04/16 08:13:34;;;;;;;12.75;10.50;;;9.40;99.90;;;;;;5028147;28;20018;-74
2021/04/16 08:16:14;;;;;;;10.07;8.55;;;10.40;95.20;;;;;;5029721;28;20025;-74
2021/04/16 08:18:42;;;;;;;14.88;9.55;;;12.00;82.90;;;;;;5029501;28;20026;-74
2021/04/16 08:21:13;;;;;;;10.75;9.10;;;13.10;70.00;;;;;;5029442;28;20065;-75
2021/04/16 08:23:59;;;;;;;8.82;7.80;;;14.90;60.70;;;;;;5028939;28;20060;-74
2021/04/16 08:26:32;;;;;;;8.82;7.90;;;15.20;56.10;;;;;;5029615;28;20024;-74
2021/04/16 08:29:03;;;;;;;9.57;8.43;;;15.70;52.60;;;;;;5029144;28;20558;-73
2021/04/16 08:31:41;;;;;;;10.23;7.82;;;17.20;47.00;;;;;;5028085;28;20395;-73
2021/04/16 08:34:13;;;;;;;8.75;7.40;;;18.50;44.50;;;;;;5028051;28;20025;-75
2021/04/16 08:36:41;;;;;;;10.52;8.95;;;17.80;44.50;;;;;;5027925;28;20036;-74
2021/04/16 08:39:24;;;;;;;11.15;7.32;;;17.00;45.00;;;;;;5027769;28;20026;-75
2021/04/16 08:42:03;;;;;;;11.13;8.50;;;17.50;44.00;;;;;;5029388;28;20033;-74
2021/04/16 08:44:33;;;;;;;7.75;6.95;;;17.80;43.00;;;;;;5029072;28;20021;-74
2021/04/16 08:46:59;;;;;;;8.98;7.35;;;17.20;43.80;;;;;;5027793;28;20028;-74
2021/04/16 08:49:26;;;;;;;9.07;6.70;;;19.00;41.00;;;;;;5027763;28;20455;-72
2021/04/16 08:52:16;;;;;;;10.77;7.93;;;21.00;37.90;;;;;;5027777;28;20032;-74
2021/04/16 08:54:43;;;;;;;8.25;6.57;;;22.40;33.70;;;;;;5029117;28;20036;-75
2021/04/16 08:57:17;;;;;;;8.07;6.88;;;23.20;32.20;;;;;;5027925;28;20029;-74
2021/04/16 09:00:02;;;;;;;6.88;6.18;;;22.50;33.40;;;;;;5027774;28;20025;-75
2021/04/16 09:02:45;;;;;;;7.68;6.65;;;21.40;34.90;;;;;;5029535;28;20459;-74
2021/04/16 09:05:18;;;;;;;7.22;6.53;;;20.40;35.70;;;;;;5031077;28;20025;-73
2021/04/16 09:07:59;;;;;;;8.57;7.07;;;19.00;37.40;;;;;;5027760;28;20586;-75
2021/04/16 09:10:24;;;;;;;6.90;6.18;;;18.70;38.40;;;;;;5029192;28;20053;-74
2021/04/16 09:12:55;;;;;;;5.22;4.28;;;20.40;34.80;;;;;;5029661;28;20053;-75
2021/04/16 09:15:20;;;;;;;4.82;3.67;;;23.40;29.90;;;;;;5032873;28;20052;-76
2021/04/16 09:17:57;;;;;;;5.43;4.80;;;26.00;27.90;;;;;;5032444;28;20056;-75
2021/04/16 09:20:46;;;;;;;4.55;4.15;;;28.40;25.70;;;;;;5032416;28;20025;-75
2021/04/16 09:23:39;;;;;;;5.50;4.85;;;29.90;23.40;;;;;;5004346;28;20045;-74
2021/04/16 09:26:09;;;;;;;4.38;3.97;;;30.80;22.40;;;;;;5031012;28;20498;-74
2021/04/16 09:28:54;;;;;;;5.03;4.53;;;31.20;22.40;;;;;;5030855;28;20044;-73
2021/04/16 09:31:26;;;;;;;4.22;3.83;;;32.00;20.40;;;;;;5032228;28;20030;-74
2021/04/16 09:34:25;;;;;;;5.63;5.13;;;32.40;20.40;;;;;;5032454;28;20037;-75
2021/04/16 09:37:13;;;;;;;4.90;4.40;;;32.00;20.40;;;;;;4999808;28;20034;-73
2021/04/16 09:39:42;;;;;;;6.28;5.32;;;32.90;20.70;;;;;;5032354;28;20021;-74
2021/04/16 09:42:30;;;;;;;4.75;4.10;;;33.70;20.50;;;;;;5030716;28;20025;-74
2021/04/16 09:44:58;;;;;;;4.43;3.95;;;32.00;20.50;;;;;;5031981;28;20032;-74
2021/04/16 09:47:47;;;;;;;4.55;4.15;;;28.50;22.50;;;;;;5032090;28;20025;-74
2021/04/16 09:50:42;;;;;;;3.83;3.22;;;24.80;25.40;;;;;;5030656;28;20502;-75
2021/04/16 09:53:08;;;;;;;4.30;3.90;;;21.60;27.30;;;;;;5003858;28;20143;-73
2021/04/16 09:55:59;;;;;;;3.60;2.83;;;18.40;30.30;;;;;;5030604;28;20021;-74
2021/04/16 10:00:56;;;;;;;5.75;4.45;;;15.80;35.10;;;;;;5031864;28;20033;-75
2021/04/16 10:03:37;;;;;;;3.42;3.00;;;15.50;37.00;;;;;;5030304;28;20021;-75
2021/04/16 10:06:38;;;;;;;4.50;3.65;;;19.30;32.10;;;;;;5030329;28;20032;-76
2021/04/16 10:09:21;;;;;;;3.85;3.40;;;25.40;25.20;;;;;;5031383;28;20028;-73
2021/04/16 10:12:09;;;;;;;3.15;2.85;;;29.70;22.50;;;;;;5030274;28;20026;-72
2021/04/16 10:14:39;;;;;;;3.67;3.03;;;33.70;20.40;;;;;;5031350;28;20083;-73
2021/04/16 10:17:14;;;;;;;4.25;3.85;;;35.60;19.00;;;;;;5029898;28;20041;-73
2021/04/16 10:19:41;;;;;;;5.03;4.15;;;33.90;19.30;;;;;;5029864;28;20074;-73
2021/04/16 10:22:12;;;;;;;3.53;3.22;;;31.00;21.40;;;;;;5031733;28;20022;-73
2021/04/16 11:04:22;;;;;;;6.05;4.93;;;18.90;34.60;;;;;;5031127;28;20030;-73
2021/04/16 12:40:49;;;;;;;4.07;3.67;;;16.40;38.50;;;;;;5029637;28;20021;-73
2021/04/16 12:43:15;;;;;;;7.18;4.32;;;16.10;38.50;;;;;;5029347;28;20029;-72
2021/04/16 12:45:40;;;;;;;5.93;4.57;;;15.70;38.70;;;;;;5028215;28;20026;-73
2021/04/16 12:48:06;;;;;;;6.00;4.20;;;15.40;40.60;;;;;;5029043;28;20478;-73
2021/04/16 12:50:32;;;;;;;5.32;4.60;;;15.00;41.00;;;;;;5032893;28;20080;-73
2021/04/16 12:52:58;;;;;;;6.35;4.78;;;14.70;40.50;;;;;;5032988;28;20036;-73
2021/04/16 12:55:24;;;;;;;4.85;3.85;;;14.40;40.80;;;;;;5032946;28;20398;-73
2021/04/16 12:57:55;;;;;;;7.00;5.13;;;14.40;41.50;;;;;;5031491;28;20038;-73
2021/04/16 13:00:44;;;;;;;6.88;4.10;;;14.50;41.70;;;;;;5032914;28;20017;-73
2021/04/16 13:03:14;;;;;;;6.65;4.82;;;14.50;41.00;;;;;;5031593;28;20022;-73
2021/04/16 13:05:40;;;;;;;6.03;4.13;;;14.50;42.50;;;;;;5032929;28;20053;-73
2021/04/16 13:08:06;;;;;;;5.80;4.32;;;14.70;40.70;;;;;;5032792;28;20470;-74
2021/04/16 13:10:32;;;;;;;5.60;4.55;;;15.00;39.90;;;;;;5031450;28;20033;-73
2021/04/16 13:12:58;;;;;;;4.97;4.07;;;15.20;40.50;;;;;;5033526;28;20025;-73
2021/04/16 13:15:24;;;;;;;5.95;4.80;;;15.60;39.60;;;;;;5033008;28;20398;-73
2021/04/16 13:17:59;;;;;;;4.25;3.38;;;15.50;40.10;;;;;;5032972;28;20192;-73
2021/04/16 13:20:26;;;;;;;4.72;3.97;;;15.50;39.10;;;;;;5031546;28;20029;-72
2021/04/16 13:22:52;;;;;;;6.65;3.97;;;15.80;38.30;;;;;;5031135;28;20025;-72
2021/04/16 13:25:21;;;;;;;5.05;3.63;;;16.10;39.40;;;;;;5032326;28;20063;-73
2021/04/16 13:27:47;;;;;;;5.22;3.70;;;16.50;37.30;;;;;;5032316;28;20040;-71
2021/04/16 13:30:14;;;;;;;4.15;3.63;;;17.20;37.00;;;;;;5032185;28;20035;-73
2021/04/16 13:32:51;;;;;;;4.38;3.38;;;17.60;36.90;;;;;;5032543;28;20512;-73
2021/04/16 13:35:35;;;;;;;4.70;4.20;;;18.20;36.00;;;;;;5032353;28;20074;-73
2021/04/16 13:38:05;;;;;;;4.50;3.65;;;18.80;34.90;;;;;;5030968;28;20076;-73
2021/04/16 13:40:32;;;;;;;4.15;3.75;;;19.70;32.50;;;;;;5031440;28;20037;-74
2021/04/16 13:42:59;;;;;;;7.82;5.90;;;21.10;31.30;;;;;;5031534;28;20022;-74
2021/04/16 13:45:25;;;;;;;3.97;3.53;;;21.80;30.50;;;;;;5031643;28;20367;-74
2021/04/16 13:47:50;;;;;;;6.80;4.75;;;21.60;29.40;;;;;;5034522;28;20037;-75
2021/04/16 13:50:17;;;;;;;4.45;3.38;;;22.40;30.00;;;;;;5034214;28;20053;-74
2021/04/16 13:52:44;;;;;;;3.15;2.80;;;24.50;28.50;;;;;;5032943;28;20033;-74
2021/04/16 13:55:13;;;;;;;3.03;2.70;;;26.60;26.10;;;;;;5035640;28;20029;-74
2021/04/16 13:57:39;;;;;;;3.65;3.08;;;26.60;25.50;;;;;;5033905;28;20029;-73
2021/04/16 14:00:06;;;;;;;3.15;2.85;;;26.20;25.60;;;;;;5031082;28;20026;-74
2021/04/16 14:02:36;;;;;;;3.17;2.88;;;26.50;25.10;;;;;;5030744;28;20021;-74
2021/04/16 14:05:07;;;;;;;4.05;3.22;;;26.10;25.10;;;;;;5032127;28;20053;-74
2021/04/16 14:07:33;;;;;;;4.20;3.80;;;25.30;25.00;;;;;;5032204;28;20417;-75
2021/04/16 14:09:59;;;;;;;3.50;3.20;;;24.30;26.40;;;;;;5030375;28;20021;-73
2021/04/16 14:12:25;;;;;;;3.65;3.35;;;24.50;27.00;;;;;;5030267;28;20482;-74
2021/04/16 14:14:50;;;;;;;3.60;3.30;;;23.80;26.90;;;;;;5030246;28;20091;-73
2021/04/16 14:17:24;;;;;;;3.72;3.28;;;23.20;27.80;;;;;;5031668;28;20494;-73
2021/04/16 14:19:52;;;;;;;3.75;3.40;;;23.00;28.60;;;;;;5031434;28;20022;-74
2021/04/16 14:22:29;;;;;;;4.43;3.42;;;22.60;28.40;;;;;;5031243;28;20113;-74
2021/04/16 14:24:55;;;;;;;3.70;3.28;;;22.20;29.20;;;;;;5031228;28;20097;-73
2021/04/16 14:27:21;;;;;;;5.00;3.65;;;21.90;29.60;;;;;;5031186;28;20029;-74
2021/04/16 14:29:47;;;;;;;4.85;3.85;;;21.90;29.30;;;;;;5029638;28;20036;-74
2021/04/16 14:32:14;;;;;;;4.47;3.75;;;21.90;29.80;;;;;;5031145;28;20033;-74
2021/04/16 14:34:40;;;;;;;3.40;3.10;;;20.80;29.40;;;;;;5031139;28;20497;-73
2021/04/16 14:37:05;;;;;;;4.07;3.67;;;19.90;31.40;;;;;;5029738;28;20024;-73
2021/04/16 14:39:31;;;;;;;3.22;2.90;;;19.80;31.70;;;;;;5029701;28;20032;-74
2021/04/16 14:41:58;;;;;;;4.90;3.70;;;20.80;30.60;;;;;;5029655;28;20088;-74
2021/04/16 14:44:24;;;;;;;4.30;3.22;;;21.30;29.00;;;;;;5029740;28;20022;-75
2021/04/16 14:46:51;;;;;;;2.88;2.58;;;22.50;28.60;;;;;;5031109;28;20029;-74
2021/04/16 14:49:25;;;;;;;5.90;3.90;;;23.70;27.20;;;;;;5029546;28;20036;-74
2021/04/16 14:51:50;;;;;;;4.38;3.50;;;24.30;25.30;;;;;;5031083;28;20112;-74
2021/04/16 14:54:33;;;;;;;3.72;3.35;;;25.10;25.70;;;;;;5030786;28;20109;-74
2021/04/16 14:57:00;;;;;;;3.90;3.58;;;25.30;24.30;;;;;;5029310;28;20399;-74
2021/04/16 14:59:39;;;;;;;4.82;3.33;;;24.00;25.60;;;;;;5031015;28;20550;-74
2021/04/16 15:02:05;;;;;;;5.68;3.47;;;22.10;27.40;;;;;;5029339;28;20554;-75
2021/04/16 15:04:30;;;;;;;4.50;4.10;;;20.60;29.10;;;;;;5030737;28;20391;-74
2021/04/16 15:07:00;;;;;;;5.30;3.67;;;18.80;31.50;;;;;;5031341;28;20030;-73
2021/04/16 15:09:36;;;;;;;4.32;3.63;;;17.40;33.90;;;;;;5030442;28;20044;-74
2021/04/16 15:12:02;;;;;;;7.15;4.05;;;16.60;36.40;;;;;;5029686;28;20032;-74
2021/04/16 15:14:29;;;;;;;3.92;3.38;;;15.70;37.90;;;;;;5029107;28;20112;-73
2021/04/16 15:16:55;;;;;;;5.68;4.47;;;15.00;39.60;;;;;;5028791;28;20033;-73
2021/04/16 15:19:45;;;;;;;5.40;4.10;;;14.50;41.40;;;;;;5030200;28;20099;-72
2021/04/16 15:22:13;;;;;;;6.30;4.40;;;13.90;44.60;;;;;;5028979;28;20057;-72
2021/04/16 15:24:41;;;;;;;5.95;4.60;;;13.40;46.10;;;;;;5028918;28;20029;-73
2021/04/16 15:27:32;;;;;;;8.60;4.88;;;13.10;46.90;;;;;;5030247;28;20108;-73
2021/04/16 15:29:59;;;;;;;5.25;4.28;;;12.60;47.60;;;;;;5033022;28;20064;-74